sensor_id;sensor_type;location;lat;lon;timestamp;P1;durP1;ratioP1;P2;durP2;ratioP2
69459;SDS011;57182;55.712;37.612;2022-09-19T00:06:10;18.05;;;9.90;;
69459;SDS011;57182;55.712;37.612;2022-09-19T00:14:34;18.75;;;11.40;;
69459;SDS011;57182;55.712;37.612;2022-09-19T00:18:24;17.85;;;10.77;;
69459;SDS011;57182;55.712;37.612;2022-09-19T00:21:53;16.73;;;10.88;;
69459;SDS011;57182;55.712;37.612;2022-09-19T00:25:39;14.13;;;9.50;;
69459;SDS011;57182;55.712;37.612;2022-09-19T00:29:44;16.23;;;9.57;;
69459;SDS011;57182;55.712;37.612;2022-09-19T00:37:24;11.77;;;7.20;;
69459;SDS011;57182;55.712;37.612;2022-09-19T00:49:22;14.20;;;8.25;;
69459;SDS011;57182;55.712;37.612;2022-09-19T00:53:22;14.55;;;9.85;;
69459;SDS011;57182;55.712;37.612;2022-09-19T00:57:21;15.63;;;9.20;;
69459;SDS011;57182;55.712;37.612;2022-09-19T01:05:00;12.27;;;8.25;;
69459;SDS011;57182;55.712;37.612;2022-09-19T01:27:34;14.02;;;8.27;;
69459;SDS011;57182;55.712;37.612;2022-09-19T01:35:11;13.38;;;7.38;;
69459;SDS011;57182;55.712;37.612;2022-09-19T01:39:02;11.65;;;7.68;;
69459;SDS011;57182;55.712;37.612;2022-09-19T01:42:30;16.45;;;8.30;;
69459;SDS011;57182;55.712;37.612;2022-09-19T01:45:15;14.00;;;8.90;;
69459;SDS011;57182;55.712;37.612;2022-09-19T01:57:14;13.48;;;8.38;;
69459;SDS011;57182;55.712;37.612;2022-09-19T02:00:26;13.98;;;8.50;;
69459;SDS011;57182;55.712;37.612;2022-09-19T02:07:22;11.00;;;7.93;;
69459;SDS011;57182;55.712;37.612;2022-09-19T02:10:51;14.23;;;8.48;;
69459;SDS011;57182;55.712;37.612;2022-09-19T02:14:53;18.38;;;8.95;;
69459;SDS011;57182;55.712;37.612;2022-09-19T02:19:06;15.40;;;9.23;;
69459;SDS011;57182;55.712;37.612;2022-09-19T02:22:32;15.38;;;9.68;;
69459;SDS011;57182;55.712;37.612;2022-09-19T02:26:21;16.55;;;10.15;;
69459;SDS011;57182;55.712;37.612;2022-09-19T02:30:14;20.45;;;8.88;;
69459;SDS011;57182;55.712;37.612;2022-09-19T02:34:05;19.02;;;11.77;;
69459;SDS011;57182;55.712;37.612;2022-09-19T02:37:14;18.65;;;11.68;;
69459;SDS011;57182;55.712;37.612;2022-09-19T02:48:05;22.15;;;10.50;;
69459;SDS011;57182;55.712;37.612;2022-09-19T02:52:03;15.18;;;9.93;;
69459;SDS011;57182;55.712;37.612;2022-09-19T03:12:04;13.68;;;8.15;;
69459;SDS011;57182;55.712;37.612;2022-09-19T03:16:15;16.30;;;8.45;;
69459;SDS011;57182;55.712;37.612;2022-09-19T03:20:15;18.00;;;9.05;;
69459;SDS011;57182;55.712;37.612;2022-09-19T03:24:11;13.10;;;8.55;;
69459;SDS011;57182;55.712;37.612;2022-09-19T03:27:49;19.45;;;8.82;;
69459;SDS011;57182;55.712;37.612;2022-09-19T03:31:33;13.65;;;8.73;;
69459;SDS011;57182;55.712;37.612;2022-09-19T03:35:08;17.63;;;9.43;;
69459;SDS011;57182;55.712;37.612;2022-09-19T03:39:18;13.45;;;9.25;;
69459;SDS011;57182;55.712;37.612;2022-09-19T03:54:49;7.63;;;3.85;;
69459;SDS011;57182;55.712;37.612;2022-09-19T04:05:02;6.00;;;3.13;;
69459;SDS011;57182;55.712;37.612;2022-09-19T04:08:31;6.93;;;3.25;;
69459;SDS011;57182;55.712;37.612;2022-09-19T04:11:52;4.93;;;2.90;;
69459;SDS011;57182;55.712;37.612;2022-09-19T04:15:03;5.50;;;1.98;;
69459;SDS011;57182;55.712;37.612;2022-09-19T04:18:48;2.20;;;2.00;;
69459;SDS011;57182;55.712;37.612;2022-09-19T04:26:20;2.63;;;2.13;;
69459;SDS011;57182;55.712;37.612;2022-09-19T04:29:55;1.90;;;1.80;;
69459;SDS011;57182;55.712;37.612;2022-09-19T04:33:02;2.17;;;1.50;;
69459;SDS011;57182;55.712;37.612;2022-09-19T04:36:05;2.08;;;1.42;;
69459;SDS011;57182;55.712;37.612;2022-09-19T04:39:25;1.88;;;1.50;;
69459;SDS011;57182;55.712;37.612;2022-09-19T04:46:27;1.73;;;1.63;;
69459;SDS011;57182;55.712;37.612;2022-09-19T04:49:54;1.75;;;1.63;;
69459;SDS011;57182;55.712;37.612;2022-09-19T04:53:00;2.75;;;1.67;;
69459;SDS011;57182;55.712;37.612;2022-09-19T04:56:54;6.07;;;1.30;;
69459;SDS011;57182;55.712;37.612;2022-09-19T05:00:43;3.42;;;1.25;;
69459;SDS011;57182;55.712;37.612;2022-09-19T05:04:11;1.48;;;1.20;;
69459;SDS011;57182;55.712;37.612;2022-09-19T05:07:38;4.82;;;1.40;;
69459;SDS011;57182;55.712;37.612;2022-09-19T05:11:59;3.70;;;1.30;;
69459;SDS011;57182;55.712;37.612;2022-09-19T05:15:51;7.97;;;2.13;;
69459;SDS011;57182;55.712;37.612;2022-09-19T05:32:33;1.52;;;1.42;;
69459;SDS011;57182;55.712;37.612;2022-09-19T05:36:53;4.10;;;1.20;;
69459;SDS011;57182;55.712;37.612;2022-09-19T05:41:08;2.63;;;1.15;;
69459;SDS011;57182;55.712;37.612;2022-09-19T05:45:08;3.67;;;1.35;;
69459;SDS011;57182;55.712;37.612;2022-09-19T05:48:36;3.72;;;0.93;;
69459;SDS011;57182;55.712;37.612;2022-09-19T05:52:17;1.58;;;1.48;;
69459;SDS011;57182;55.712;37.612;2022-09-19T05:56:22;6.65;;;1.10;;
69459;SDS011;57182;55.712;37.612;2022-09-19T06:00:28;3.03;;;1.40;;
69459;SDS011;57182;55.712;37.612;2022-09-19T06:03:53;1.90;;;1.20;;
69459;SDS011;57182;55.712;37.612;2022-09-19T06:11:43;3.42;;;1.33;;
69459;SDS011;57182;55.712;37.612;2022-09-19T06:15:17;1.48;;;1.30;;
69459;SDS011;57182;55.712;37.612;2022-09-19T06:21:49;4.78;;;1.38;;
69459;SDS011;57182;55.712;37.612;2022-09-19T06:25:30;2.53;;;1.20;;
69459;SDS011;57182;55.712;37.612;2022-09-19T06:28:46;1.52;;;1.20;;
69459;SDS011;57182;55.712;37.612;2022-09-19T06:32:25;2.45;;;1.13;;
69459;SDS011;57182;55.712;37.612;2022-09-19T06:36:00;2.90;;;1.00;;
69459;SDS011;57182;55.712;37.612;2022-09-19T06:45:17;2.70;;;1.27;;
69459;SDS011;57182;55.712;37.612;2022-09-19T06:49:25;1.13;;;1.02;;
69459;SDS011;57182;55.712;37.612;2022-09-19T06:58:20;3.95;;;0.90;;
69459;SDS011;57182;55.712;37.612;2022-09-19T07:09:54;1.90;;;0.60;;
69459;SDS011;57182;55.712;37.612;2022-09-19T07:18:03;2.75;;;0.57;;
69459;SDS011;57182;55.712;37.612;2022-09-19T08:28:36;0.52;;;0.40;;
69459;SDS011;57182;55.712;37.612;2022-09-19T08:55:18;0.55;;;0.50;;
69459;SDS011;57182;55.712;37.612;2022-09-19T09:04:24;3.50;;;0.50;;
69459;SDS011;57182;55.712;37.612;2022-09-19T09:10:50;1.95;;;0.52;;
69459;SDS011;57182;55.712;37.612;2022-09-19T09:13:36;3.13;;;0.50;;
69459;SDS011;57182;55.712;37.612;2022-09-19T09:16:40;0.60;;;0.57;;
69459;SDS011;57182;55.712;37.612;2022-09-19T09:23:23;3.00;;;0.73;;
69459;SDS011;57182;55.712;37.612;2022-09-19T09:26:54;2.47;;;0.85;;
69459;SDS011;57182;55.712;37.612;2022-09-19T09:30:22;5.05;;;0.80;;
69459;SDS011;57182;55.712;37.612;2022-09-19T09:33:56;2.03;;;0.68;;
69459;SDS011;57182;55.712;37.612;2022-09-19T09:37:08;6.03;;;0.90;;
69459;SDS011;57182;55.712;37.612;2022-09-19T09:40:13;3.55;;;0.60;;
69459;SDS011;57182;55.712;37.612;2022-09-19T09:48:06;0.73;;;0.57;;
69459;SDS011;57182;55.712;37.612;2022-09-19T09:51:41;5.15;;;0.82;;
69459;SDS011;57182;55.712;37.612;2022-09-19T09:55:37;0.88;;;0.88;;
69459;SDS011;57182;55.712;37.612;2022-09-19T09:59:47;2.35;;;0.60;;
69459;SDS011;57182;55.712;37.612;2022-09-19T10:06:26;3.90;;;1.00;;
69459;SDS011;57182;55.712;37.612;2022-09-19T10:09:33;6.35;;;0.88;;
69459;SDS011;57182;55.712;37.612;2022-09-19T10:17:31;1.17;;;0.60;;
69459;SDS011;57182;55.712;37.612;2022-09-19T10:21:32;0.60;;;0.60;;
69459;SDS011;57182;55.712;37.612;2022-09-19T10:24:54;0.60;;;0.50;;
69459;SDS011;57182;55.712;37.612;2022-09-19T10:28:22;0.50;;;0.50;;
69459;SDS011;57182;55.712;37.612;2022-09-19T10:31:35;0.50;;;0.50;;
69459;SDS011;57182;55.712;37.612;2022-09-19T10:38:29;2.08;;;0.70;;
69459;SDS011;57182;55.712;37.612;2022-09-19T10:42:09;0.82;;;0.82;;
69459;SDS011;57182;55.712;37.612;2022-09-19T10:49:18;1.02;;;0.70;;
69459;SDS011;57182;55.712;37.612;2022-09-19T11:03:40;4.30;;;0.80;;
69459;SDS011;57182;55.712;37.612;2022-09-19T11:15:36;0.98;;;0.80;;
69459;SDS011;57182;55.712;37.612;2022-09-19T11:52:28;0.50;;;0.50;;
69459;SDS011;57182;55.712;37.612;2022-09-19T12:16:35;0.50;;;0.50;;
69459;SDS011;57182;55.712;37.612;2022-09-19T12:40:26;0.40;;;0.40;;
69459;SDS011;57182;55.712;37.612;2022-09-19T14:56:17;0.88;;;0.88;;
69459;SDS011;57182;55.712;37.612;2022-09-19T15:22:00;0.50;;;0.43;;
69459;SDS011;57182;55.712;37.612;2022-09-19T15:24:28;0.55;;;0.40;;
69459;SDS011;57182;55.712;37.612;2022-09-19T15:27:17;4.45;;;0.43;;
69459;SDS011;57182;55.712;37.612;2022-09-19T15:35:20;0.30;;;0.30;;
69459;SDS011;57182;55.712;37.612;2022-09-19T15:39:13;1.08;;;0.40;;
69459;SDS011;57182;55.712;37.612;2022-09-19T15:47:34;2.05;;;0.60;;
69459;SDS011;57182;55.712;37.612;2022-09-19T16:18:56;0.80;;;0.80;;
69459;SDS011;57182;55.712;37.612;2022-09-19T16:22:26;1.17;;;0.77;;
69459;SDS011;57182;55.712;37.612;2022-09-19T16:26:21;1.30;;;0.98;;
69459;SDS011;57182;55.712;37.612;2022-09-19T16:29:00;1.08;;;1.08;;
69459;SDS011;57182;55.712;37.612;2022-09-19T16:55:38;0.73;;;0.73;;
69459;SDS011;57182;55.712;37.612;2022-09-19T17:02:43;0.95;;;0.95;;
69459;SDS011;57182;55.712;37.612;2022-09-19T17:05:22;2.25;;;1.08;;
69459;SDS011;57182;55.712;37.612;2022-09-19T17:07:55;0.90;;;0.90;;
69459;SDS011;57182;55.712;37.612;2022-09-19T17:10:55;1.42;;;1.33;;
69459;SDS011;57182;55.712;37.612;2022-09-19T17:17:49;0.70;;;0.70;;
69459;SDS011;57182;55.712;37.612;2022-09-19T17:20:18;3.22;;;0.98;;
69459;SDS011;57182;55.712;37.612;2022-09-19T17:22:55;0.77;;;0.77;;
69459;SDS011;57182;55.712;37.612;2022-09-19T17:25:57;0.77;;;0.60;;
69459;SDS011;57182;55.712;37.612;2022-09-19T17:31:48;0.82;;;0.82;;
69459;SDS011;57182;55.712;37.612;2022-09-19T17:35:00;0.75;;;0.75;;
69459;SDS011;57182;55.712;37.612;2022-09-19T17:38:00;0.60;;;0.50;;
69459;SDS011;57182;55.712;37.612;2022-09-19T17:40:40;0.80;;;0.80;;
69459;SDS011;57182;55.712;37.612;2022-09-19T17:43:53;6.28;;;1.00;;
69459;SDS011;57182;55.712;37.612;2022-09-19T17:46:33;2.15;;;0.70;;
69459;SDS011;57182;55.712;37.612;2022-09-19T17:49:53;0.90;;;0.90;;
69459;SDS011;57182;55.712;37.612;2022-09-19T17:56:27;0.80;;;0.80;;
69459;SDS011;57182;55.712;37.612;2022-09-19T17:59:10;1.30;;;1.10;;
69459;SDS011;57182;55.712;37.612;2022-09-19T18:01:57;1.25;;;0.85;;
69459;SDS011;57182;55.712;37.612;2022-09-19T18:05:01;1.13;;;1.02;;
69459;SDS011;57182;55.712;37.612;2022-09-19T18:07:37;1.20;;;1.00;;
69459;SDS011;57182;55.712;37.612;2022-09-19T18:10:37;1.00;;;0.80;;
69459;SDS011;57182;55.712;37.612;2022-09-19T18:13:23;1.10;;;1.08;;
69459;SDS011;57182;55.712;37.612;2022-09-19T18:15:51;1.40;;;1.30;;
69459;SDS011;57182;55.712;37.612;2022-09-19T18:18:35;0.80;;;0.80;;
69459;SDS011;57182;55.712;37.612;2022-09-19T18:21:36;1.13;;;0.98;;
69459;SDS011;57182;55.712;37.612;2022-09-19T18:24:20;0.77;;;0.77;;
69459;SDS011;57182;55.712;37.612;2022-09-19T18:26:48;5.28;;;1.20;;
69459;SDS011;57182;55.712;37.612;2022-09-19T18:29:23;1.00;;;0.88;;
69459;SDS011;57182;55.712;37.612;2022-09-19T18:32:00;3.30;;;0.90;;
69459;SDS011;57182;55.712;37.612;2022-09-19T18:35:03;1.27;;;1.17;;
69459;SDS011;57182;55.712;37.612;2022-09-19T18:37:37;1.10;;;1.00;;
69459;SDS011;57182;55.712;37.612;2022-09-19T18:40:26;1.08;;;1.08;;
69459;SDS011;57182;55.712;37.612;2022-09-19T18:48:53;1.30;;;1.20;;
69459;SDS011;57182;55.712;37.612;2022-09-19T18:51:26;2.35;;;1.13;;
69459;SDS011;57182;55.712;37.612;2022-09-19T18:54:03;1.67;;;1.20;;
69459;SDS011;57182;55.712;37.612;2022-09-19T18:56:36;2.25;;;0.63;;
69459;SDS011;57182;55.712;37.612;2022-09-19T18:59:13;1.25;;;1.05;;
69459;SDS011;57182;55.712;37.612;2022-09-19T19:01:55;1.48;;;1.38;;
69459;SDS011;57182;55.712;37.612;2022-09-19T19:04:48;1.30;;;0.57;;
69459;SDS011;57182;55.712;37.612;2022-09-19T19:07:16;1.85;;;0.80;;
69459;SDS011;57182;55.712;37.612;2022-09-19T19:09:54;0.90;;;0.90;;
69459;SDS011;57182;55.712;37.612;2022-09-19T19:12:26;0.82;;;0.82;;
69459;SDS011;57182;55.712;37.612;2022-09-19T19:15:10;4.00;;;1.23;;
69459;SDS011;57182;55.712;37.612;2022-09-19T19:17:49;2.97;;;0.90;;
69459;SDS011;57182;55.712;37.612;2022-09-19T19:20:17;0.95;;;0.95;;
69459;SDS011;57182;55.712;37.612;2022-09-19T19:22:49;0.98;;;0.98;;
69459;SDS011;57182;55.712;37.612;2022-09-19T19:25:20;0.80;;;0.80;;
69459;SDS011;57182;55.712;37.612;2022-09-19T19:27:53;1.58;;;0.90;;
69459;SDS011;57182;55.712;37.612;2022-09-19T19:30:26;1.80;;;1.17;;
69459;SDS011;57182;55.712;37.612;2022-09-19T19:32:56;1.75;;;0.90;;
69459;SDS011;57182;55.712;37.612;2022-09-19T19:35:26;1.10;;;1.10;;
69459;SDS011;57182;55.712;37.612;2022-09-19T19:37:53;1.23;;;0.80;;
69459;SDS011;57182;55.712;37.612;2022-09-19T19:40:21;1.30;;;1.00;;
69459;SDS011;57182;55.712;37.612;2022-09-19T19:42:52;1.38;;;1.00;;
69459;SDS011;57182;55.712;37.612;2022-09-19T19:45:25;1.42;;;1.30;;
69459;SDS011;57182;55.712;37.612;2022-09-19T19:47:55;0.75;;;0.70;;
69459;SDS011;57182;55.712;37.612;2022-09-19T19:50:23;3.00;;;1.23;;
69459;SDS011;57182;55.712;37.612;2022-09-19T19:52:56;1.10;;;1.00;;
69459;SDS011;57182;55.712;37.612;2022-09-19T19:55:25;2.20;;;1.00;;
69459;SDS011;57182;55.712;37.612;2022-09-19T19:57:56;1.20;;;1.10;;
69459;SDS011;57182;55.712;37.612;2022-09-19T20:00:26;1.10;;;0.85;;
69459;SDS011;57182;55.712;37.612;2022-09-19T20:02:56;2.83;;;0.77;;
69459;SDS011;57182;55.712;37.612;2022-09-19T20:05:27;1.15;;;1.10;;
69459;SDS011;57182;55.712;37.612;2022-09-19T20:07:54;2.63;;;1.58;;
69459;SDS011;57182;55.712;37.612;2022-09-19T20:10:32;0.75;;;0.75;;
69459;SDS011;57182;55.712;37.612;2022-09-19T20:12:59;2.78;;;1.05;;
69459;SDS011;57182;55.712;37.612;2022-09-19T20:15:32;1.00;;;0.90;;
69459;SDS011;57182;55.712;37.612;2022-09-19T20:18:03;3.33;;;1.33;;
69459;SDS011;57182;55.712;37.612;2022-09-19T20:20:46;1.85;;;1.00;;
69459;SDS011;57182;55.712;37.612;2022-09-19T20:23:25;2.35;;;1.02;;
69459;SDS011;57182;55.712;37.612;2022-09-19T20:25:52;2.58;;;1.38;;
69459;SDS011;57182;55.712;37.612;2022-09-19T20:28:22;4.00;;;0.93;;
69459;SDS011;57182;55.712;37.612;2022-09-19T20:31:00;1.52;;;1.27;;
69459;SDS011;57182;55.712;37.612;2022-09-19T20:33:33;1.40;;;1.35;;
69459;SDS011;57182;55.712;37.612;2022-09-19T20:36:02;6.18;;;1.20;;
69459;SDS011;57182;55.712;37.612;2022-09-19T20:38:30;1.45;;;1.35;;
69459;SDS011;57182;55.712;37.612;2022-09-19T20:40:58;1.23;;;1.13;;
69459;SDS011;57182;55.712;37.612;2022-09-19T20:43:27;1.40;;;1.10;;
69459;SDS011;57182;55.712;37.612;2022-09-19T20:45:56;1.35;;;1.13;;
69459;SDS011;57182;55.712;37.612;2022-09-19T20:48:28;1.48;;;1.38;;
69459;SDS011;57182;55.712;37.612;2022-09-19T20:51:00;1.25;;;1.15;;
69459;SDS011;57182;55.712;37.612;2022-09-19T20:53:36;2.05;;;1.45;;
69459;SDS011;57182;55.712;37.612;2022-09-19T20:56:05;1.30;;;1.20;;
69459;SDS011;57182;55.712;37.612;2022-09-19T20:58:35;1.33;;;1.23;;
69459;SDS011;57182;55.712;37.612;2022-09-19T21:01:09;1.50;;;1.40;;
69459;SDS011;57182;55.712;37.612;2022-09-19T21:03:38;3.78;;;1.02;;
69459;SDS011;57182;55.712;37.612;2022-09-19T21:06:07;1.52;;;1.40;;
69459;SDS011;57182;55.712;37.612;2022-09-19T21:08:40;1.27;;;1.20;;
69459;SDS011;57182;55.712;37.612;2022-09-19T21:11:09;1.38;;;1.27;;
69459;SDS011;57182;55.712;37.612;2022-09-19T21:13:44;1.30;;;1.20;;
69459;SDS011;57182;55.712;37.612;2022-09-19T21:16:17;1.63;;;1.42;;
69459;SDS011;57182;55.712;37.612;2022-09-19T21:18:49;1.38;;;1.25;;
69459;SDS011;57182;55.712;37.612;2022-09-19T21:21:21;1.05;;;1.00;;
69459;SDS011;57182;55.712;37.612;2022-09-19T21:23:57;1.58;;;1.48;;
69459;SDS011;57182;55.712;37.612;2022-09-19T21:28:58;1.45;;;1.35;;
69459;SDS011;57182;55.712;37.612;2022-09-19T21:31:40;1.48;;;1.38;;
69459;SDS011;57182;55.712;37.612;2022-09-19T21:34:13;1.58;;;1.48;;
69459;SDS011;57182;55.712;37.612;2022-09-19T21:36:44;1.38;;;1.27;;
69459;SDS011;57182;55.712;37.612;2022-09-19T21:39:22;1.33;;;1.23;;
69459;SDS011;57182;55.712;37.612;2022-09-19T21:41:55;1.50;;;1.40;;
69459;SDS011;57182;55.712;37.612;2022-09-19T21:48:05;2.00;;;1.33;;
69459;SDS011;57182;55.712;37.612;2022-09-19T21:50:37;1.65;;;1.38;;
69459;SDS011;57182;55.712;37.612;2022-09-19T21:53:14;3.75;;;1.55;;
69459;SDS011;57182;55.712;37.612;2022-09-19T21:56:09;1.95;;;1.73;;
69459;SDS011;57182;55.712;37.612;2022-09-19T21:58:40;1.60;;;1.50;;
69459;SDS011;57182;55.712;37.612;2022-09-19T22:01:23;1.23;;;1.13;;
69459;SDS011;57182;55.712;37.612;2022-09-19T22:03:59;1.88;;;1.58;;
69459;SDS011;57182;55.712;37.612;2022-09-19T22:06:28;1.50;;;1.40;;
69459;SDS011;57182;55.712;37.612;2022-09-19T22:09:02;2.38;;;1.55;;
69459;SDS011;57182;55.712;37.612;2022-09-19T22:11:32;2.50;;;1.40;;
69459;SDS011;57182;55.712;37.612;2022-09-19T22:17:45;1.63;;;1.48;;
69459;SDS011;57182;55.712;37.612;2022-09-19T22:20:15;2.28;;;1.50;;
69459;SDS011;57182;55.712;37.612;2022-09-19T22:22:52;2.70;;;1.45;;
69459;SDS011;57182;55.712;37.612;2022-09-19T22:25:34;4.88;;;2.53;;
69459;SDS011;57182;55.712;37.612;2022-09-19T22:28:15;2.25;;;1.70;;
69459;SDS011;57182;55.712;37.612;2022-09-19T22:30:55;2.03;;;1.35;;
69459;SDS011;57182;55.712;37.612;2022-09-19T22:33:27;1.55;;;1.45;;
69459;SDS011;57182;55.712;37.612;2022-09-19T22:35:59;2.38;;;1.42;;
69459;SDS011;57182;55.712;37.612;2022-09-19T22:38:34;1.50;;;1.40;;
69459;SDS011;57182;55.712;37.612;2022-09-19T22:41:12;1.65;;;1.50;;
69459;SDS011;57182;55.712;37.612;2022-09-19T22:43:57;3.13;;;1.95;;
69459;SDS011;57182;55.712;37.612;2022-09-19T22:46:27;2.75;;;1.60;;
69459;SDS011;57182;55.712;37.612;2022-09-19T22:51:30;1.70;;;1.10;;
69459;SDS011;57182;55.712;37.612;2022-09-19T22:56:34;1.50;;;1.40;;
69459;SDS011;57182;55.712;37.612;2022-09-19T22:59:02;1.40;;;1.30;;
69459;SDS011;57182;55.712;37.612;2022-09-19T23:01:31;1.58;;;1.45;;
69459;SDS011;57182;55.712;37.612;2022-09-19T23:04:02;1.45;;;1.35;;
69459;SDS011;57182;55.712;37.612;2022-09-19T23:06:32;3.15;;;1.63;;
69459;SDS011;57182;55.712;37.612;2022-09-19T23:09:04;1.73;;;1.45;;
69459;SDS011;57182;55.712;37.612;2022-09-19T23:11:37;1.75;;;1.65;;
69459;SDS011;57182;55.712;37.612;2022-09-19T23:17:26;1.40;;;1.30;;
69459;SDS011;57182;55.712;37.612;2022-09-19T23:19:54;1.42;;;1.30;;
69459;SDS011;57182;55.712;37.612;2022-09-19T23:22:26;1.10;;;1.00;;
69459;SDS011;57182;55.712;37.612;2022-09-19T23:24:58;2.15;;;1.23;;
69459;SDS011;57182;55.712;37.612;2022-09-19T23:27:28;1.45;;;1.33;;
69459;SDS011;57182;55.712;37.612;2022-09-19T23:29:58;2.35;;;2.15;;
69459;SDS011;57182;55.712;37.612;2022-09-19T23:32:26;1.02;;;1.02;;
69459;SDS011;57182;55.712;37.612;2022-09-19T23:34:56;1.88;;;1.27;;
69459;SDS011;57182;55.712;37.612;2022-09-19T23:37:26;1.40;;;1.30;;
69459;SDS011;57182;55.712;37.612;2022-09-19T23:39:53;2.20;;;1.50;;
69459;SDS011;57182;55.712;37.612;2022-09-19T23:42:21;1.45;;;1.30;;
69459;SDS011;57182;55.712;37.612;2022-09-19T23:44:49;1.67;;;1.58;;
69459;SDS011;57182;55.712;37.612;2022-09-19T23:47:16;2.55;;;1.35;;
69459;SDS011;57182;55.712;37.612;2022-09-19T23:49:46;1.67;;;1.20;;
69459;SDS011;57182;55.712;37.612;2022-09-19T23:52:16;1.50;;;1.40;;
69459;SDS011;57182;55.712;37.612;2022-09-19T23:54:48;1.35;;;1.20;;
69459;SDS011;57182;55.712;37.612;2022-09-19T23:57:17;3.92;;;1.30;;
69459;SDS011;57182;55.712;37.612;2022-09-19T23:59:44;3.17;;;1.48;;
